createdAt,value
2017-10-13T14:39:46.521Z,2270
2017-10-13T14:40:46.552Z,2225
2017-10-13T14:41:46.586Z,2230
2017-10-13T14:42:46.615Z,2230
2017-10-13T14:43:47.251Z,2250
2017-10-13T14:44:46.683Z,2170
2017-10-13T14:45:46.713Z,2050
2017-10-13T14:46:46.761Z,2000
2017-10-13T14:47:46.815Z,1900
2017-10-13T14:48:50.659Z,1430
2017-10-13T14:49:52.184Z,835
2017-10-13T14:50:51.259Z,320
2017-10-13T14:51:50.341Z,190
2017-10-13T14:52:49.082Z,175
2017-10-13T14:53:46.996Z,165
2017-10-13T14:54:47.035Z,165
2017-10-13T14:55:47.394Z,155
2017-10-13T14:56:47.430Z,150
2017-10-13T14:57:47.131Z,145
2017-10-13T14:58:47.293Z,140
2017-10-13T14:59:47.196Z,140
2017-10-13T15:00:47.227Z,140
2017-10-13T15:01:47.265Z,135
2017-10-13T15:02:47.522Z,135
2017-10-13T15:03:47.346Z,135
2017-10-13T15:04:47.368Z,135
2017-10-13T15:05:48.064Z,135
2017-10-13T15:06:47.447Z,135
2017-10-13T15:07:47.505Z,135
2017-10-13T15:08:47.488Z,130
2017-10-13T15:09:47.521Z,130
2017-10-13T15:10:47.552Z,130
2017-10-13T15:11:48.214Z,130
2017-10-13T15:12:47.614Z,125
2017-10-13T15:13:47.640Z,125
2017-10-13T15:14:47.674Z,125
2017-10-13T15:15:47.700Z,120
2017-10-13T15:16:47.743Z,120
2017-10-13T15:17:47.768Z,120
2017-10-13T15:18:47.798Z,120
2017-10-13T15:19:47.813Z,120
2017-10-13T15:20:47.851Z,115
2017-10-13T15:21:48.218Z,115
2017-10-13T15:22:47.904Z,115
2017-10-13T15:23:48.391Z,110
2017-10-13T15:24:47.962Z,110
2017-10-13T15:25:47.999Z,110
2017-10-13T15:26:48.023Z,110
2017-10-13T15:27:48.396Z,105
2017-10-13T15:28:48.075Z,105
2017-10-13T15:29:48.437Z,105
2017-10-13T15:30:48.137Z,100
2017-10-13T15:31:48.163Z,100
2017-10-13T15:32:48.190Z,95
2017-10-13T15:33:48.229Z,95
2017-10-13T15:34:48.572Z,95
2017-10-13T15:35:48.272Z,90
2017-10-13T15:36:48.948Z,90
2017-10-13T15:37:48.334Z,85
2017-10-13T15:38:48.366Z,85
2017-10-13T15:39:48.396Z,80
2017-10-13T15:40:48.461Z,80
2017-10-13T15:41:48.510Z,80
2017-10-13T15:42:48.468Z,75
2017-10-13T15:43:48.503Z,75
2017-10-13T15:44:48.529Z,75
2017-10-13T15:45:48.556Z,70
2017-10-13T15:46:48.580Z,70
2017-10-13T15:47:48.611Z,70
2017-10-13T15:48:48.641Z,65
2017-10-13T15:49:48.670Z,65
2017-10-13T15:50:48.701Z,65
2017-10-13T15:51:48.770Z,60
2017-10-13T15:52:48.762Z,60
2017-10-13T15:53:48.774Z,60
2017-10-13T15:54:48.832Z,55
2017-10-13T15:55:49.171Z,55
2017-10-13T15:56:48.903Z,55
2017-10-13T15:57:48.883Z,50
2017-10-13T15:58:48.927Z,50
2017-10-13T15:59:48.944Z,50
2017-10-13T16:00:49.641Z,45
2017-10-13T16:01:49.331Z,45
2017-10-13T16:02:49.354Z,45
2017-10-13T16:03:49.039Z,40
2017-10-13T16:04:49.075Z,40
2017-10-13T16:05:49.106Z,35
2017-10-13T16:06:49.127Z,35
2017-10-13T16:07:49.156Z,40
2017-10-13T16:08:49.502Z,40
2017-10-13T16:09:49.535Z,40
2017-10-13T16:10:49.236Z,35
2017-10-13T16:11:49.260Z,35
2017-10-13T16:12:49.284Z,30
2017-10-13T16:13:49.312Z,30
2017-10-13T16:14:49.340Z,30
2017-10-13T16:15:49.388Z,30
2017-10-13T16:16:49.394Z,25
2017-10-13T16:17:49.434Z,25
2017-10-13T16:18:49.457Z,25
2017-10-13T16:19:49.470Z,20
2017-10-13T16:20:49.528Z,20
2017-10-13T16:21:49.520Z,20
2017-10-13T16:22:49.560Z,15
2017-10-13T16:23:49.896Z,15
2017-10-13T16:24:49.605Z,15
2017-10-13T16:25:49.631Z,15
2017-10-13T16:26:49.652Z,10
2017-10-13T16:27:49.682Z,10
2017-10-13T16:28:50.024Z,10
2017-10-13T16:29:49.766Z,10
2017-10-13T16:30:50.180Z,5
2017-10-13T16:31:49.832Z,5
2017-10-13T16:32:49.816Z,5
2017-10-13T16:33:49.854Z,5
2017-10-13T16:34:49.854Z,5
2017-10-13T16:35:49.884Z,5
2017-10-13T16:36:49.903Z,5
2017-10-13T16:37:49.926Z,0
2017-10-13T16:38:50.284Z,0
2017-10-13T16:39:49.975Z,0
2017-10-13T16:40:50.016Z,0
2017-10-13T16:41:50.027Z,0
2017-10-13T16:42:50.059Z,0
2017-10-13T16:43:50.081Z,0
2017-10-13T16:44:50.104Z,0
2017-10-13T16:45:50.142Z,0
2017-10-13T16:46:50.159Z,0
2017-10-13T16:47:50.184Z,0
2017-10-13T16:48:50.540Z,0
2017-10-13T16:49:50.560Z,0
2017-10-13T16:50:50.256Z,0
2017-10-13T16:51:50.271Z,0
2017-10-13T16:52:50.316Z,0
2017-10-13T16:53:50.330Z,0
2017-10-13T16:54:50.689Z,0
2017-10-13T16:55:50.722Z,0
2017-10-13T16:56:50.402Z,0
2017-10-13T16:57:50.743Z,0
2017-10-13T16:58:50.448Z,0
2017-10-13T16:59:50.478Z,0
2017-10-13T17:00:50.493Z,0
2017-10-13T17:01:50.886Z,0
2017-10-13T17:02:50.544Z,0
2017-10-13T17:03:50.665Z,0
2017-10-13T17:04:50.925Z,0
2017-10-13T17:05:50.624Z,0
2017-10-13T17:06:50.657Z,0
2017-10-13T17:07:50.678Z,0
2017-10-13T17:08:50.690Z,0
2017-10-13T17:09:51.106Z,0
2017-10-13T17:10:50.781Z,0
2017-10-13T17:11:50.765Z,0
2017-10-13T17:12:51.110Z,0
2017-10-13T17:13:50.810Z,0
2017-10-13T17:14:50.844Z,0
2017-10-13T17:15:50.869Z,0
2017-10-13T17:16:50.885Z,0
2017-10-13T17:17:51.229Z,0
2017-10-13T17:18:50.925Z,0
2017-10-13T17:19:51.291Z,0
2017-10-13T17:20:50.978Z,0
2017-10-13T17:21:51.000Z,0
2017-10-13T17:22:51.031Z,0
2017-10-13T17:23:51.058Z,0
2017-10-13T17:24:51.085Z,0
2017-10-13T17:25:51.106Z,0
2017-10-13T17:26:51.130Z,0
2017-10-13T17:27:51.173Z,0
2017-10-13T17:28:51.230Z,0
2017-10-13T17:29:51.199Z,0
2017-10-13T17:30:51.221Z,0
2017-10-13T17:31:51.244Z,0
2017-10-13T17:32:51.274Z,0
2017-10-13T17:33:51.302Z,0
2017-10-13T17:34:51.322Z,0
2017-10-13T17:35:51.343Z,0
2017-10-13T17:36:51.690Z,0
2017-10-13T17:37:51.715Z,0
2017-10-13T17:38:51.415Z,0
2017-10-13T17:39:51.447Z,0
2017-10-13T17:40:51.485Z,0
2017-10-13T17:41:51.485Z,0
2017-10-13T17:42:51.515Z,0
2017-10-13T17:43:51.941Z,0
2017-10-13T17:44:51.557Z,0
2017-10-13T17:45:51.903Z,0
2017-10-13T17:46:51.607Z,0
2017-10-13T17:47:51.628Z,0
2017-10-13T17:48:51.653Z,0
2017-10-13T17:49:51.684Z,0
2017-10-13T17:50:51.708Z,0
2017-10-13T17:51:51.724Z,0
2017-10-13T17:52:52.069Z,0
2017-10-13T17:53:51.778Z,0
2017-10-13T17:54:51.818Z,0
2017-10-13T17:55:51.821Z,0
2017-10-13T17:56:51.841Z,0
2017-10-13T17:57:51.861Z,0
2017-10-13T17:58:51.939Z,0
2017-10-13T17:59:51.913Z,0
2017-10-13T18:00:51.942Z,0
2017-10-13T18:01:51.964Z,0
2017-10-13T18:02:51.987Z,0
2017-10-13T18:03:52.011Z,0
2017-10-13T18:04:52.040Z,0
2017-10-13T18:05:52.062Z,0
2017-10-13T18:06:52.084Z,0
2017-10-13T18:07:52.100Z,0
2017-10-13T18:08:52.124Z,0
2017-10-13T18:09:52.147Z,0
2017-10-13T18:10:52.177Z,0
2017-10-13T18:11:52.198Z,0
2017-10-13T18:12:52.451Z,0
2017-10-13T18:13:52.264Z,0
2017-10-13T18:14:52.276Z,0
2017-10-13T18:15:52.622Z,0
2017-10-13T18:16:52.316Z,0
2017-10-13T18:17:52.336Z,0
2017-10-13T18:18:52.411Z,0
2017-10-13T18:19:52.390Z,0
2017-10-13T18:20:52.408Z,0
2017-10-13T18:21:52.429Z,0
2017-10-13T18:22:52.462Z,0
2017-10-13T18:23:52.492Z,0
2017-10-13T18:24:52.511Z,0
2017-10-13T18:25:52.520Z,0
2017-10-13T18:26:52.551Z,0
2017-10-13T18:27:52.588Z,0
2017-10-13T18:28:53.799Z,0
2017-10-13T18:29:52.950Z,0
2017-10-13T18:30:52.669Z,0
2017-10-13T18:31:52.661Z,0
2017-10-13T18:32:52.681Z,0
2017-10-13T18:33:52.709Z,0
2017-10-13T18:34:52.744Z,0
2017-10-13T18:35:53.099Z,0
2017-10-13T18:36:52.789Z,0
2017-10-13T18:37:52.855Z,0
2017-10-13T18:38:53.471Z,0
2017-10-13T18:39:52.857Z,0
2017-10-13T18:40:53.203Z,0
2017-10-13T18:41:52.897Z,0
2017-10-13T18:42:52.926Z,0
2017-10-13T18:43:52.965Z,0
2017-10-13T18:44:52.970Z,0
2017-10-13T18:45:52.986Z,0
2017-10-13T18:46:53.018Z,0
2017-10-13T18:47:53.033Z,0
2017-10-13T18:48:53.058Z,0
2017-10-13T18:49:53.080Z,0
2017-10-13T18:50:53.098Z,0
2017-10-13T18:51:53.446Z,0
2017-10-13T18:52:53.155Z,0
2017-10-13T18:53:53.176Z,0
2017-10-13T18:54:53.202Z,0
2017-10-13T18:55:53.219Z,0
2017-10-13T18:56:53.295Z,0
2017-10-13T18:57:53.273Z,0
2017-10-13T18:58:53.616Z,0
2017-10-13T18:59:53.301Z,0
2017-10-13T19:00:53.336Z,0
2017-10-13T19:01:53.350Z,0
2017-10-13T19:02:53.702Z,0
2017-10-13T19:03:53.397Z,0
2017-10-13T19:04:53.759Z,0
2017-10-13T19:05:53.445Z,0
2017-10-13T19:06:53.477Z,0
2017-10-13T19:07:53.860Z,0
2017-10-13T19:08:53.515Z,0
2017-10-13T19:09:53.533Z,0
2017-10-13T19:10:53.554Z,0
2017-10-13T19:11:53.577Z,0
2017-10-13T19:12:53.604Z,0
2017-10-13T19:13:53.667Z,0
2017-10-13T19:14:53.651Z,0
2017-10-13T19:15:53.679Z,0
2017-10-13T19:16:53.698Z,0
2017-10-13T19:17:53.725Z,0
2017-10-13T19:18:54.082Z,0
2017-10-13T19:19:54.090Z,0
2017-10-13T19:20:53.787Z,0
2017-10-13T19:21:53.806Z,0
2017-10-13T19:22:53.832Z,0
2017-10-13T19:23:53.858Z,0
2017-10-13T19:24:54.211Z,0
2017-10-13T19:25:53.898Z,0
2017-10-13T19:26:53.931Z,0
2017-10-13T19:27:53.941Z,0
2017-10-13T19:28:54.014Z,0
2017-10-13T19:29:53.986Z,0
2017-10-13T19:30:54.012Z,0
2017-10-13T19:31:54.065Z,0
2017-10-13T19:32:54.057Z,0
2017-10-13T19:33:54.099Z,0
2017-10-13T19:34:54.101Z,0
2017-10-13T19:35:54.121Z,0
2017-10-13T19:36:54.173Z,0
2017-10-13T19:37:54.203Z,0
2017-10-13T19:38:54.202Z,0
2017-10-13T19:39:54.237Z,0
2017-10-13T19:40:54.235Z,0
2017-10-13T19:41:54.501Z,0
2017-10-13T19:42:54.338Z,0
2017-10-13T19:43:54.314Z,0
2017-10-13T19:44:54.345Z,0
2017-10-13T19:45:54.351Z,0
2017-10-13T19:46:54.463Z,0
2017-10-13T19:47:54.824Z,0
2017-10-13T19:48:54.480Z,0
2017-10-13T19:49:54.454Z,0
2017-10-13T19:50:54.482Z,0
2017-10-13T19:51:54.529Z,0
2017-10-13T19:52:54.837Z,0
2017-10-13T19:53:54.549Z,0
2017-10-13T19:54:54.581Z,0
2017-10-13T19:55:54.585Z,0
2017-10-13T19:56:54.651Z,0
2017-10-13T19:57:54.623Z,0
2017-10-13T19:58:54.663Z,0
2017-10-13T19:59:54.663Z,0
2017-10-13T20:00:54.701Z,0
2017-10-13T20:01:54.731Z,0
2017-10-13T20:02:54.767Z,0
2017-10-13T20:03:54.791Z,0
2017-10-13T20:04:54.794Z,0
2017-10-13T20:05:54.824Z,0
2017-10-13T20:06:54.842Z,0
2017-10-13T20:07:55.211Z,0
2017-10-13T20:08:54.900Z,0
2017-10-13T20:09:54.894Z,0
2017-10-13T20:10:54.919Z,0
2017-10-13T20:11:54.987Z,0
2017-10-13T20:12:55.322Z,0
2017-10-13T20:13:55.334Z,0
2017-10-13T20:14:55.017Z,0
2017-10-13T20:15:55.045Z,0
2017-10-13T20:16:55.061Z,0
2017-10-13T20:17:55.077Z,0
2017-10-13T20:18:55.119Z,0
2017-10-13T20:19:55.114Z,0
2017-10-13T20:20:55.139Z,0
2017-10-13T20:21:55.486Z,0
2017-10-13T20:22:55.191Z,0
2017-10-13T20:23:55.220Z,0
2017-10-13T20:24:55.235Z,0
2017-10-13T20:25:55.284Z,0
2017-10-13T20:26:55.334Z,0
2017-10-13T20:27:55.305Z,0
2017-10-13T20:28:55.960Z,0
2017-10-13T20:29:55.697Z,0
2017-10-13T20:30:55.732Z,0
2017-10-13T20:31:55.711Z,0
2017-10-13T20:32:55.406Z,0
2017-10-13T20:33:55.434Z,0
2017-10-13T20:34:55.786Z,0
2017-10-13T20:35:55.474Z,0
2017-10-13T20:36:55.865Z,0
2017-10-13T20:37:55.525Z,0
2017-10-13T20:38:55.552Z,0
2017-10-13T20:39:55.557Z,0
2017-10-13T20:40:55.902Z,0
2017-10-13T20:41:55.624Z,0
2017-10-13T20:42:55.973Z,0
2017-10-13T20:43:55.668Z,0
2017-10-13T20:44:55.672Z,0
2017-10-13T20:45:55.693Z,0
2017-10-13T20:46:55.734Z,0
2017-10-13T20:47:55.746Z,0
2017-10-13T20:48:56.117Z,0
2017-10-13T20:49:55.778Z,0
2017-10-13T20:50:55.807Z,0
2017-10-13T20:51:55.845Z,0
2017-10-13T20:52:56.182Z,0
2017-10-13T20:53:56.198Z,0
2017-10-13T20:54:55.940Z,0
2017-10-13T20:55:56.256Z,0
2017-10-13T20:56:55.939Z,0
2017-10-13T20:57:55.976Z,0
2017-10-13T20:58:56.405Z,0
2017-10-13T20:59:56.019Z,0
2017-10-13T21:00:56.374Z,0
2017-10-13T21:01:56.049Z,0
2017-10-13T21:02:56.411Z,0
2017-10-13T21:03:56.096Z,0
2017-10-13T21:04:56.125Z,0
2017-10-13T21:05:56.465Z,0
2017-10-13T21:06:56.484Z,0
2017-10-13T21:07:56.185Z,0
2017-10-13T21:08:56.537Z,0
2017-10-13T21:09:56.232Z,0
2017-10-13T21:10:56.254Z,0
2017-10-13T21:11:56.303Z,0
2017-10-13T21:12:56.308Z,0
2017-10-13T21:13:56.661Z,0
2017-10-13T21:14:56.359Z,0
2017-10-13T21:15:56.375Z,0
2017-10-13T21:16:56.755Z,0
2017-10-13T21:17:56.451Z,0
2017-10-13T21:18:56.428Z,0
2017-10-13T21:19:56.453Z,0
2017-10-13T21:20:56.804Z,0
2017-10-13T21:21:56.511Z,0
2017-10-13T21:22:56.520Z,0
2017-10-13T21:23:56.541Z,0
2017-10-13T21:24:56.561Z,0
2017-10-13T21:25:56.581Z,0
2017-10-13T21:26:56.614Z,0
2017-10-13T21:27:56.639Z,0
2017-10-13T21:28:57.318Z,0
2017-10-13T21:29:56.669Z,0
2017-10-13T21:30:56.699Z,0
2017-10-13T21:31:56.725Z,0
2017-10-13T21:32:56.796Z,0
2017-10-13T21:33:56.768Z,0
2017-10-13T21:34:56.791Z,0
2017-10-13T21:35:56.806Z,0
2017-10-13T21:36:56.831Z,0
2017-10-13T21:37:56.851Z,0
2017-10-13T21:38:56.872Z,0
2017-10-13T21:39:56.892Z,0
2017-10-13T21:40:56.921Z,0
2017-10-13T21:41:56.962Z,0
2017-10-13T21:42:56.957Z,0
2017-10-13T21:43:56.995Z,0
2017-10-13T21:44:57.009Z,0
2017-10-13T21:45:57.033Z,0
2017-10-13T21:46:57.243Z,0
2017-10-13T21:47:57.080Z,0
2017-10-13T21:48:57.422Z,0
2017-10-13T21:49:57.115Z,0
2017-10-13T21:50:57.138Z,0
2017-10-13T21:51:57.207Z,0
2017-10-13T21:52:57.175Z,0
2017-10-13T21:53:57.196Z,0
2017-10-13T21:54:57.234Z,0
2017-10-13T21:55:57.246Z,0
2017-10-13T21:56:57.587Z,0
2017-10-13T21:57:57.298Z,0
2017-10-13T21:58:57.312Z,0
2017-10-13T21:59:57.330Z,0
2017-10-13T22:00:57.678Z,0
2017-10-13T22:01:57.376Z,0
2017-10-13T22:02:57.404Z,0
2017-10-13T22:03:57.420Z,0
2017-10-13T22:04:57.472Z,0
2017-10-13T22:05:57.465Z,0
2017-10-13T22:06:57.856Z,0
2017-10-13T22:07:57.502Z,0
2017-10-13T22:08:57.528Z,0
2017-10-13T22:09:57.546Z,0
2017-10-13T22:10:57.571Z,0
2017-10-13T22:11:57.592Z,0
2017-10-13T22:12:57.618Z,0
2017-10-13T22:13:57.642Z,0
2017-10-13T22:14:57.655Z,0
2017-10-13T22:15:57.680Z,0
2017-10-13T22:16:57.692Z,0
2017-10-13T22:17:57.723Z,0
2017-10-13T22:18:57.741Z,0
2017-10-13T22:19:57.764Z,0
2017-10-13T22:20:57.802Z,0
2017-10-13T22:21:57.809Z,0
2017-10-13T22:22:57.826Z,0
2017-10-13T22:23:57.848Z,0
2017-10-13T22:24:57.872Z,0
2017-10-13T22:25:57.896Z,0
2017-10-13T22:26:57.930Z,0
2017-10-13T22:27:57.948Z,0
2017-10-13T22:28:58.297Z,0
2017-10-13T22:29:57.977Z,0
2017-10-13T22:30:58.005Z,0
2017-10-13T22:31:58.024Z,0
2017-10-13T22:32:58.382Z,0
2017-10-13T22:33:58.068Z,0
2017-10-13T22:34:58.105Z,0
2017-10-13T22:35:58.107Z,0
2017-10-13T22:36:58.150Z,0
2017-10-13T22:37:58.355Z,0
2017-10-13T22:38:58.224Z,0
2017-10-13T22:39:58.843Z,0
2017-10-13T22:40:58.221Z,0
2017-10-13T22:41:58.232Z,0
2017-10-13T22:42:58.581Z,0
2017-10-13T22:43:58.302Z,0
2017-10-13T22:44:58.304Z,0
2017-10-13T22:45:58.328Z,0
2017-10-13T22:46:58.354Z,0
2017-10-13T22:47:58.377Z,0
2017-10-13T22:48:58.392Z,0
2017-10-13T22:49:58.432Z,0
2017-10-13T22:50:58.438Z,0
2017-10-13T22:51:58.452Z,0
2017-10-13T22:52:58.478Z,0
2017-10-13T22:53:58.556Z,0
2017-10-13T22:54:58.516Z,0
2017-10-13T22:55:58.543Z,0
2017-10-13T22:56:58.883Z,0
2017-10-13T22:57:58.587Z,0
2017-10-13T22:58:58.606Z,0
2017-10-13T22:59:58.946Z,0
2017-10-13T23:00:58.647Z,0
2017-10-13T23:01:58.663Z,0
2017-10-13T23:02:59.021Z,0
2017-10-13T23:03:58.712Z,0
2017-10-13T23:04:58.728Z,0
2017-10-13T23:05:58.757Z,0
2017-10-13T23:06:58.779Z,0
2017-10-13T23:07:58.798Z,0
2017-10-13T23:08:58.865Z,0
2017-10-13T23:09:58.839Z,0
2017-10-13T23:10:58.850Z,0
2017-10-13T23:11:59.217Z,0
2017-10-13T23:12:59.230Z,0
2017-10-13T23:13:58.930Z,0
2017-10-13T23:14:59.593Z,0
2017-10-13T23:15:58.965Z,0
2017-10-13T23:16:58.988Z,0
2017-10-13T23:17:59.003Z,0
2017-10-13T23:18:59.034Z,0
2017-10-13T23:19:59.052Z,0
2017-10-13T23:20:59.067Z,0
2017-10-13T23:21:59.100Z,0
2017-10-13T23:22:59.121Z,0
2017-10-13T23:23:59.184Z,0
2017-10-13T23:24:59.160Z,0
2017-10-13T23:25:59.175Z,0
2017-10-13T23:26:59.195Z,0
2017-10-13T23:27:59.229Z,0
2017-10-13T23:28:59.256Z,0
2017-10-13T23:29:59.260Z,0
2017-10-13T23:30:59.616Z,0
2017-10-13T23:31:59.299Z,0
2017-10-13T23:32:59.318Z,0
2017-10-13T23:33:59.347Z,0
2017-10-13T23:34:59.372Z,0
2017-10-13T23:35:59.380Z,0
2017-10-13T23:36:59.409Z,0
2017-10-13T23:37:59.429Z,0
2017-10-13T23:38:59.450Z,0
2017-10-13T23:39:59.793Z,0
2017-10-13T23:40:59.539Z,0
2017-10-13T23:41:59.514Z,0
2017-10-13T23:42:59.529Z,0
2017-10-13T23:43:59.558Z,0
2017-10-13T23:44:59.595Z,0
2017-10-13T23:45:59.599Z,0
2017-10-13T23:46:59.623Z,0
2017-10-13T23:47:59.641Z,0
2017-10-13T23:48:59.653Z,0
2017-10-13T23:49:59.682Z,0
2017-10-13T23:50:59.693Z,0
2017-10-13T23:52:00.052Z,0
2017-10-13T23:52:59.747Z,0
2017-10-13T23:53:59.763Z,0
2017-10-13T23:54:59.784Z,0
2017-10-13T23:55:59.803Z,0
2017-10-13T23:56:59.824Z,0
2017-10-13T23:57:59.855Z,0
2017-10-13T23:58:59.938Z,0
2017-10-13T23:59:59.892Z,0
